Lewisville's Hourly Summary for Wednesday, July 11, 2018
Hour Temp
(f)
RH
(%)
Solar Rad.
(MJ/m2)
Rainfall
(in)
Wind
(mph)
7/11/2018 12:00 AM 76 82 0 0 0
7/11/2018 1:00 AM 75 86 0 0 0.01
7/11/2018 2:00 AM 74 89 0 0 0
7/11/2018 3:00 AM 74 90 0 0 0
7/11/2018 4:00 AM 74 88 0 0 0
7/11/2018 5:00 AM 74 89 0 0 0.01
7/11/2018 6:00 AM 74 89 0.02 0 0.13
7/11/2018 7:00 AM 76 78 0.21 0 1.11
7/11/2018 8:00 AM 81 68 0.82 0 5.24
7/11/2018 9:00 AM 83 58 0.97 0 4.42
7/11/2018 10:00 AM 87 50 2.13 0 4.12
7/11/2018 11:00 AM 89 49 1.95 0 4.05
7/11/2018 12:00 PM 90 44 2.62 0 4.26
7/11/2018 1:00 PM 94 35 3.04 0 5.31
7/11/2018 2:00 PM 94 34 1.92 0 5.25
7/11/2018 3:00 PM 96 31 2.04 0 6.83
7/11/2018 4:00 PM 96 36 2.15 0 6.87
7/11/2018 5:00 PM 95 35 1.8 0 7.13
7/11/2018 6:00 PM 95 36 1.08 0 7.44
7/11/2018 7:00 PM 93 38 0.3 0 6.32
7/11/2018 8:00 PM 92 39 0.07 0 4.81
7/11/2018 9:00 PM 89 44 0 0 5.45
7/11/2018 10:00 PM 86 54 0 0 4.11
7/11/2018 11:00 PM 84 58 0 0 4.22
Data Summary 85 58 21.12 0.00 3.63